Andrews Air Force Base
KADW : now visible

Airfield :











YOU CAN JOIN US ON...

 
LOGIN :

Register | Disclaimer

   EN    FR    IT 

 









Legend :    VFR   Marginal VFR   IFR   Intensive IFR   Very Intensive IFR
Visi :
Ceiling :
>= 8 km
>= 3000ft
5 to 8 km
1000 to 3000 ft
1500m to 5 km
500 to 1000 ft
800 to 1500m
200 to 500 ft
< 800m
< 200 ft
Symbols :   Thunderstorms  Fog  Heavy snow  Heavy precipitations  Wind > 20 kt






- Airport Elevation : 280 ft


KADW - Andrews Air Force Base

CURRENT METAR :
  • 120156Z AUTO 30013KT 10SM CLR 02/M09 A3050 RMK AO2 SLP338 T00191094 $

EXPIRED METARs :
  • 120056Z AUTO 32012KT 10SM CLR 02/M10 A3047 RMK AO2 SLP328 T00201102 $
  • 112356Z AUTO 32006KT 10SM CLR 02/M09 A3044 RMK AO2 SLP318 T00191091 10044 20019 52022 $

TAF TAF KADW
Valid from the 12 at 01:00 until the 13 at 07:00 UTC


120100Z 1201/1307 35009KT 9999 SKC QNH3047INS
BECMG 1212/1213 01006KT 9999 SKC QNH3060INS
BECMG 1302/1303 18006KT 9999 SCT030 QNH3053INS
BECMG 1304/1305 02006KT 9999 BKN020 QNH3042INS TX02/1201Z TNM02/1212Z



MET'MAP, your aeronautical weather chart ! - Copyright ORBIFLY December 2007 - Disclaimer

ORBIFLY MET'MAP TEAM :

Programming & Development : Alexandra Zaïnal
Concept & original design : Baudouin d'Aumeries
Assistance for programming : Marc-Olivier Méhu
Technical & hardware support : Manuel Goepfert

Contact : metmap@orbifly.com




SOURCES & CREDITS :

   NOAA       Earth
Advisory